createdAt,value
2019-01-09T00:01:24.994Z,4.40
2019-01-09T00:03:53.785Z,4.40
2019-01-09T00:06:22.597Z,4.40
2019-01-09T00:08:51.344Z,4.40
2019-01-09T00:11:20.104Z,4.40
2019-01-09T00:13:48.942Z,4.50
2019-01-09T00:16:17.671Z,4.40
2019-01-09T00:18:46.457Z,4.20
2019-01-09T00:21:15.236Z,4.20
2019-01-09T00:23:44.097Z,4.10
2019-01-09T00:26:13.090Z,4.10
2019-01-09T00:28:41.945Z,3.80
2019-01-09T00:31:10.698Z,3.70
2019-01-09T00:33:39.443Z,3.80
2019-01-09T00:36:08.237Z,3.90
2019-01-09T00:38:36.961Z,4.00
2019-01-09T00:41:05.794Z,4.00
2019-01-09T00:43:34.507Z,4.10
2019-01-09T00:46:03.257Z,4.10
2019-01-09T00:48:32.211Z,4.10
2019-01-09T00:51:01.051Z,4.10
2019-01-09T00:53:29.891Z,4.10
2019-01-09T00:55:58.755Z,4.10
2019-01-09T00:58:27.468Z,4.10
2019-01-09T01:00:56.214Z,4.10
2019-01-09T01:04:07.897Z,4.10
2019-01-09T01:07:22.560Z,4.10
2019-01-09T01:10:37.430Z,4.10
2019-01-09T01:13:46.210Z,4.10
2019-01-09T01:16:38.909Z,4.10
2019-01-09T01:19:56.226Z,4.10
2019-01-09T01:23:00.731Z,4.20
2019-01-09T01:25:40.119Z,4.20
2019-01-09T01:28:38.036Z,4.10
2019-01-09T01:31:42.887Z,4.20
2019-01-09T01:34:22.396Z,4.20
2019-01-09T01:37:50.603Z,4.30
2019-01-09T01:40:41.781Z,4.30
2019-01-09T01:43:34.168Z,4.30
2019-01-09T01:46:27.743Z,4.40
2019-01-09T01:49:20.634Z,4.40
2019-01-09T01:52:42.545Z,4.40
2019-01-09T01:55:47.614Z,4.40
2019-01-09T01:59:03.406Z,4.40
2019-01-09T02:01:55.203Z,4.40
2019-01-09T02:04:59.655Z,4.30
2019-01-09T02:08:18.276Z,4.20
2019-01-09T02:11:16.042Z,4.10
2019-01-09T02:14:11.685Z,4.10
2019-01-09T02:17:31.121Z,4.00
2019-01-09T02:20:26.539Z,4.00
2019-01-09T02:23:25.934Z,3.90
2019-01-09T02:26:14.113Z,3.90
2019-01-09T02:29:33.675Z,3.90
2019-01-09T02:32:31.016Z,3.80
2019-01-09T02:34:59.967Z,3.80
2019-01-09T02:37:28.987Z,3.90
2019-01-09T02:39:57.869Z,4.00
2019-01-09T02:42:26.764Z,4.00
2019-01-09T02:44:55.598Z,4.00
2019-01-09T02:47:24.551Z,4.00
2019-01-09T02:49:53.288Z,4.00
2019-01-09T02:52:21.989Z,4.00
2019-01-09T02:54:50.792Z,4.10
2019-01-09T02:57:19.586Z,4.10
2019-01-09T02:59:48.347Z,4.20
2019-01-09T03:02:17.064Z,4.10
2019-01-09T03:04:45.803Z,4.10
2019-01-09T03:07:14.777Z,4.10
2019-01-09T03:09:43.543Z,4.10
2019-01-09T03:12:12.243Z,4.10
2019-01-09T03:14:41.060Z,4.10
2019-01-09T03:17:10.146Z,4.00
2019-01-09T03:19:38.944Z,4.00
2019-01-09T03:22:07.744Z,4.00
2019-01-09T03:24:36.636Z,4.00
2019-01-09T03:27:05.325Z,4.00
2019-01-09T03:29:34.032Z,3.90
2019-01-09T03:32:02.925Z,3.90
2019-01-09T03:34:31.629Z,3.90
2019-01-09T03:37:00.384Z,3.90
2019-01-09T03:39:29.115Z,3.90
2019-01-09T03:41:57.837Z,3.80
2019-01-09T03:44:26.694Z,3.80
2019-01-09T03:46:55.522Z,3.80
2019-01-09T03:49:24.325Z,3.80
2019-01-09T03:51:53.113Z,3.80
2019-01-09T03:54:21.874Z,3.70
2019-01-09T03:56:50.536Z,3.70
2019-01-09T03:59:19.244Z,3.80
2019-01-09T04:01:47.966Z,3.70
2019-01-09T04:04:16.699Z,3.70
2019-01-09T04:06:45.394Z,3.70
2019-01-09T04:09:14.114Z,3.70
2019-01-09T04:11:42.851Z,3.70
2019-01-09T04:14:11.858Z,3.70
2019-01-09T04:16:40.635Z,3.70
2019-01-09T04:19:09.374Z,3.70
2019-01-09T04:21:38.279Z,3.70
2019-01-09T04:24:07.005Z,3.70
2019-01-09T04:26:35.797Z,3.70
2019-01-09T04:29:04.617Z,3.70
2019-01-09T04:31:33.496Z,3.60
2019-01-09T04:34:02.335Z,3.60
2019-01-09T04:36:31.055Z,3.60
2019-01-09T04:38:59.782Z,3.50
2019-01-09T04:41:28.495Z,3.60
2019-01-09T04:43:57.163Z,3.50
2019-01-09T04:46:25.901Z,3.50
2019-01-09T04:48:54.717Z,3.50
2019-01-09T04:51:23.486Z,3.60
2019-01-09T04:53:52.267Z,3.60
2019-01-09T04:56:20.982Z,3.60
2019-01-09T04:58:49.690Z,3.60
2019-01-09T05:01:18.546Z,3.60
2019-01-09T05:03:47.320Z,3.70
2019-01-09T05:06:16.069Z,3.70
2019-01-09T05:08:44.960Z,3.70
2019-01-09T05:11:13.672Z,3.70
2019-01-09T05:13:42.527Z,3.80
2019-01-09T05:16:11.445Z,3.80
2019-01-09T05:18:40.219Z,3.80
2019-01-09T05:21:09.139Z,3.90
2019-01-09T05:23:37.851Z,3.90
2019-01-09T05:26:06.769Z,3.90
2019-01-09T05:28:35.555Z,4.00
2019-01-09T05:31:07.627Z,3.90
2019-01-09T05:33:34.677Z,3.90
2019-01-09T05:36:03.494Z,4.00
2019-01-09T05:38:32.313Z,4.00
2019-01-09T05:41:01.140Z,4.00
2019-01-09T05:43:29.859Z,4.00
2019-01-09T05:45:58.563Z,4.00
2019-01-09T05:48:27.282Z,4.00
2019-01-09T05:50:56.167Z,4.00
2019-01-09T05:53:24.959Z,3.90
2019-01-09T05:55:53.768Z,4.00
2019-01-09T05:58:22.713Z,4.00
2019-01-09T06:00:51.482Z,4.00
2019-01-09T06:03:20.394Z,4.00
2019-01-09T06:05:49.194Z,3.90
2019-01-09T06:08:18.171Z,3.80
2019-01-09T06:10:46.948Z,3.90
2019-01-09T06:13:15.741Z,3.80
2019-01-09T06:15:45.860Z,3.80
2019-01-09T06:18:14.889Z,3.80
2019-01-09T06:20:43.730Z,3.80
2019-01-09T06:23:12.535Z,3.80
2019-01-09T06:25:41.331Z,3.80
2019-01-09T06:28:10.100Z,3.80
2019-01-09T06:30:39.253Z,3.90
2019-01-09T06:33:08.039Z,3.90
2019-01-09T06:35:36.827Z,4.00
2019-01-09T06:38:05.568Z,4.00
2019-01-09T06:40:34.371Z,4.00
2019-01-09T06:43:03.138Z,4.00
2019-01-09T06:45:31.949Z,4.10
2019-01-09T06:48:00.737Z,4.10
2019-01-09T06:50:29.606Z,4.20
2019-01-09T06:52:58.313Z,4.10
2019-01-09T06:55:27.173Z,4.10
2019-01-09T06:57:55.918Z,4.10
2019-01-09T07:00:24.625Z,4.20
2019-01-09T07:02:53.367Z,4.20
2019-01-09T07:05:22.103Z,4.20
2019-01-09T07:07:50.814Z,4.20
2019-01-09T07:10:19.562Z,4.20
2019-01-09T07:12:48.295Z,4.20
2019-01-09T07:15:17.050Z,4.10
2019-01-09T07:17:45.825Z,4.10
2019-01-09T07:20:14.703Z,4.10
2019-01-09T07:22:43.544Z,4.10
2019-01-09T07:25:12.228Z,4.00
2019-01-09T07:27:41.041Z,3.90
2019-01-09T07:30:09.861Z,3.90
2019-01-09T07:32:38.555Z,3.80
2019-01-09T07:35:07.418Z,3.80
2019-01-09T07:37:44.744Z,3.80
2019-01-09T07:40:07.213Z,3.80
2019-01-09T07:42:35.947Z,3.80
2019-01-09T07:45:04.815Z,3.70
2019-01-09T07:47:33.725Z,3.70
2019-01-09T07:50:02.429Z,3.80
2019-01-09T07:52:31.155Z,3.70
2019-01-09T07:54:59.867Z,3.70
2019-01-09T07:57:28.586Z,3.70
2019-01-09T07:59:57.310Z,3.70
2019-01-09T08:02:26.020Z,3.70
2019-01-09T08:04:54.794Z,3.70
2019-01-09T08:07:24.711Z,3.70
2019-01-09T08:09:53.433Z,3.70
2019-01-09T08:12:22.137Z,3.70
2019-01-09T08:14:50.908Z,3.70
2019-01-09T08:17:19.747Z,3.70
2019-01-09T08:19:48.574Z,3.80
2019-01-09T08:22:17.427Z,3.80
2019-01-09T08:24:46.163Z,3.90
2019-01-09T08:27:15.164Z,3.90
2019-01-09T08:29:43.824Z,4.00
2019-01-09T08:32:12.582Z,4.00
2019-01-09T08:34:41.350Z,4.10
2019-01-09T08:37:10.261Z,4.10
2019-01-09T08:39:39.165Z,4.10
2019-01-09T08:42:07.952Z,4.10
2019-01-09T08:44:36.746Z,4.20
2019-01-09T08:47:05.530Z,4.20
2019-01-09T08:49:34.315Z,4.30
2019-01-09T08:52:03.080Z,4.40
2019-01-09T08:54:31.848Z,4.40
2019-01-09T08:57:00.566Z,4.50
2019-01-09T08:59:29.252Z,4.60
2019-01-09T09:01:58.027Z,4.60
2019-01-09T09:04:26.740Z,4.60
2019-01-09T09:06:55.538Z,4.70
2019-01-09T09:09:24.363Z,4.70
2019-01-09T09:11:53.086Z,4.60
2019-01-09T09:14:21.944Z,4.60
2019-01-09T09:16:50.731Z,4.60
2019-01-09T09:19:19.428Z,4.60
2019-01-09T09:21:48.317Z,4.50
2019-01-09T09:24:17.173Z,4.50
2019-01-09T09:26:45.911Z,4.50
2019-01-09T09:29:14.711Z,4.50
2019-01-09T09:31:43.478Z,4.40
2019-01-09T09:34:12.157Z,4.50
2019-01-09T09:36:40.851Z,4.40
2019-01-09T09:39:10.246Z,4.50
2019-01-09T09:41:38.939Z,4.50
2019-01-09T09:44:07.674Z,4.60
2019-01-09T09:46:36.358Z,4.60
2019-01-09T09:49:05.121Z,4.60
2019-01-09T09:51:33.924Z,4.60
2019-01-09T09:54:02.638Z,4.70
2019-01-09T09:56:31.339Z,4.70
2019-01-09T09:59:00.011Z,4.80
2019-01-09T10:01:28.734Z,4.80
2019-01-09T10:03:57.499Z,4.90
2019-01-09T10:06:26.187Z,4.90
2019-01-09T10:08:54.870Z,4.90
2019-01-09T10:11:23.586Z,4.90
2019-01-09T10:13:52.322Z,5.00
2019-01-09T10:16:21.331Z,5.00
2019-01-09T10:18:50.176Z,5.00
2019-01-09T10:21:18.874Z,5.10
2019-01-09T10:23:47.853Z,5.00
2019-01-09T10:26:16.893Z,4.90
2019-01-09T10:28:46.013Z,5.00
2019-01-09T10:31:15.236Z,4.90
2019-01-09T10:33:44.189Z,4.90
2019-01-09T10:36:13.016Z,5.00
2019-01-09T10:38:41.791Z,4.90
2019-01-09T10:41:10.523Z,5.00
2019-01-09T10:43:39.238Z,5.00
2019-01-09T10:46:07.936Z,5.10
2019-01-09T10:48:36.649Z,5.10
2019-01-09T10:51:05.349Z,5.20
2019-01-09T10:53:34.062Z,5.30
2019-01-09T10:56:02.966Z,5.10
2019-01-09T10:58:31.762Z,5.30
2019-01-09T11:01:00.461Z,5.20
2019-01-09T11:03:29.196Z,5.30
2019-01-09T11:05:57.974Z,5.30
2019-01-09T11:08:26.685Z,5.40
2019-01-09T11:10:55.380Z,5.30
2019-01-09T11:13:24.083Z,5.40
2019-01-09T11:15:52.834Z,5.30
2019-01-09T11:18:21.599Z,5.30
2019-01-09T11:20:50.377Z,5.20
2019-01-09T11:23:19.241Z,5.20
2019-01-09T11:25:47.948Z,5.30
2019-01-09T11:28:16.756Z,5.30
2019-01-09T11:30:45.524Z,5.40
2019-01-09T11:33:14.323Z,5.40
2019-01-09T11:35:43.044Z,5.40
2019-01-09T11:38:11.749Z,5.50
2019-01-09T11:40:40.469Z,5.40
2019-01-09T11:43:09.223Z,5.40
2019-01-09T11:45:37.922Z,5.40
2019-01-09T11:48:06.682Z,5.30
2019-01-09T11:50:35.407Z,5.40
2019-01-09T11:53:04.137Z,5.50
2019-01-09T11:55:32.863Z,5.40
2019-01-09T11:58:01.699Z,5.40
2019-01-09T12:00:30.422Z,5.40
2019-01-09T12:02:59.159Z,5.40
2019-01-09T12:05:27.913Z,5.40
2019-01-09T12:07:56.663Z,5.40
2019-01-09T12:10:30.098Z,5.30
2019-01-09T12:12:56.387Z,5.30
2019-01-09T12:15:25.128Z,5.40
2019-01-09T12:17:53.989Z,5.40
2019-01-09T12:20:22.882Z,5.50
2019-01-09T12:22:51.588Z,5.70
2019-01-09T12:25:20.370Z,5.60
2019-01-09T12:27:49.091Z,5.50
2019-01-09T12:30:23.111Z,5.60
2019-01-09T12:32:51.890Z,5.60
2019-01-09T12:35:20.578Z,5.50
2019-01-09T12:37:49.488Z,5.50
2019-01-09T12:40:18.248Z,5.50
2019-01-09T12:42:46.958Z,5.50
2019-01-09T12:45:15.893Z,5.50
2019-01-09T12:47:44.611Z,5.50
2019-01-09T12:50:18.895Z,5.50
2019-01-09T12:52:47.653Z,5.50
2019-01-09T12:55:16.319Z,5.40
2019-01-09T12:57:45.112Z,5.40
2019-01-09T13:00:17.318Z,5.50
2019-01-09T13:02:45.999Z,5.40
2019-01-09T13:05:14.777Z,5.40
2019-01-09T13:07:43.898Z,5.40
2019-01-09T13:10:12.670Z,5.50
2019-01-09T13:12:41.475Z,5.50
2019-01-09T13:15:10.371Z,5.50
2019-01-09T13:17:39.112Z,5.50
2019-01-09T13:20:09.601Z,5.50
2019-01-09T13:22:38.340Z,5.50
2019-01-09T13:25:07.686Z,5.70
2019-01-09T13:27:36.654Z,5.70
2019-01-09T13:30:07.393Z,5.60
2019-01-09T13:32:36.247Z,5.60
2019-01-09T13:35:05.198Z,5.60
2019-01-09T13:37:33.927Z,5.60
2019-01-09T13:40:02.679Z,5.50
2019-01-09T13:42:31.398Z,5.40
2019-01-09T13:45:00.166Z,5.50
2019-01-09T13:47:29.174Z,5.40
2019-01-09T13:49:57.969Z,5.40
2019-01-09T13:52:26.739Z,5.40
2019-01-09T13:54:55.474Z,5.50
2019-01-09T13:57:24.219Z,5.40
2019-01-09T13:59:53.013Z,5.50
2019-01-09T14:02:21.707Z,5.50
2019-01-09T14:04:50.424Z,5.50
2019-01-09T14:07:19.143Z,5.50
2019-01-09T14:09:47.910Z,5.50
2019-01-09T14:12:16.789Z,5.50
2019-01-09T14:14:45.554Z,5.50
2019-01-09T14:17:14.327Z,5.50
2019-01-09T14:19:43.105Z,5.30
2019-01-09T14:22:11.829Z,5.20
2019-01-09T14:24:40.640Z,5.20
2019-01-09T14:27:09.523Z,5.20
2019-01-09T14:29:38.233Z,5.10
2019-01-09T14:32:06.934Z,5.00
2019-01-09T14:34:35.676Z,4.90
2019-01-09T14:37:04.380Z,4.90
2019-01-09T14:39:33.259Z,4.90
2019-01-09T14:42:02.038Z,4.80
2019-01-09T14:44:30.705Z,4.90
2019-01-09T14:46:59.388Z,5.00
2019-01-09T14:49:28.090Z,5.00
2019-01-09T14:51:56.859Z,5.00
2019-01-09T14:54:25.682Z,5.00
2019-01-09T14:56:54.446Z,5.10
2019-01-09T14:59:23.140Z,5.00
2019-01-09T15:01:51.871Z,4.90
2019-01-09T15:04:20.643Z,4.90
2019-01-09T15:06:49.835Z,4.80
2019-01-09T15:09:20.107Z,4.80
2019-01-09T15:11:48.908Z,4.80
2019-01-09T15:14:18.171Z,4.80
2019-01-09T15:16:47.070Z,4.80
2019-01-09T15:19:16.727Z,4.70
2019-01-09T15:21:45.472Z,4.70
2019-01-09T15:24:14.191Z,4.60
2019-01-09T15:26:43.032Z,4.60
2019-01-09T15:29:11.885Z,4.60
2019-01-09T15:31:40.647Z,4.60
2019-01-09T15:34:09.461Z,4.50
2019-01-09T15:36:38.162Z,4.50
2019-01-09T15:39:08.000Z,4.40
2019-01-09T15:41:36.850Z,4.40
2019-01-09T15:44:05.618Z,4.40
2019-01-09T15:46:34.404Z,4.30
2019-01-09T15:49:03.188Z,4.30
2019-01-09T15:51:31.891Z,4.30
2019-01-09T15:54:00.713Z,4.30
2019-01-09T15:56:29.549Z,4.30
2019-01-09T15:58:58.279Z,4.30
2019-01-09T16:01:27.056Z,4.30
2019-01-09T16:03:55.799Z,4.30
2019-01-09T16:06:24.574Z,4.30
2019-01-09T16:08:53.809Z,4.30
2019-01-09T16:11:22.677Z,4.40
2019-01-09T16:13:51.653Z,4.50
2019-01-09T16:16:20.642Z,4.40
2019-01-09T16:18:49.359Z,4.30
2019-01-09T16:21:18.146Z,4.20
2019-01-09T16:23:46.927Z,4.20
2019-01-09T16:26:15.698Z,4.20
2019-01-09T16:28:44.512Z,4.20
2019-01-09T16:31:28.466Z,4.20
2019-01-09T16:33:57.287Z,4.10
2019-01-09T16:36:26.958Z,4.10
2019-01-09T16:38:58.254Z,4.10
2019-01-09T16:41:27.142Z,4.10
2019-01-09T16:43:56.023Z,4.10
2019-01-09T16:46:25.055Z,4.00
2019-01-09T16:48:53.837Z,4.00
2019-01-09T16:51:22.567Z,3.90
2019-01-09T16:53:51.429Z,3.90
2019-01-09T16:56:20.171Z,3.90
2019-01-09T16:58:49.190Z,3.80
2019-01-09T17:01:17.981Z,3.90
2019-01-09T17:03:46.693Z,3.90
2019-01-09T17:06:15.666Z,3.90
2019-01-09T17:08:44.538Z,4.00
2019-01-09T17:11:13.535Z,4.00
2019-01-09T17:13:42.346Z,3.90
2019-01-09T17:16:11.211Z,3.90
2019-01-09T17:18:40.091Z,3.90
2019-01-09T17:21:08.982Z,3.90
2019-01-09T17:23:38.036Z,3.90
2019-01-09T17:26:06.871Z,3.90
2019-01-09T17:28:35.829Z,3.90
2019-01-09T17:31:04.614Z,3.90
2019-01-09T17:33:33.471Z,3.90
2019-01-09T17:36:02.404Z,3.90
2019-01-09T17:38:31.233Z,3.90
2019-01-09T17:41:00.360Z,3.80
2019-01-09T17:43:29.158Z,4.00
2019-01-09T17:45:58.012Z,3.90
2019-01-09T17:48:27.168Z,3.90
2019-01-09T17:50:56.021Z,3.80
2019-01-09T17:53:24.834Z,3.80
2019-01-09T17:55:53.660Z,3.80
2019-01-09T17:58:22.545Z,3.80
2019-01-09T18:00:51.368Z,3.80
2019-01-09T18:03:20.541Z,3.80
2019-01-09T18:05:51.316Z,3.80
2019-01-09T18:08:20.413Z,3.80
2019-01-09T18:10:50.477Z,3.80
2019-01-09T18:13:19.635Z,3.90
2019-01-09T18:15:52.668Z,3.80
2019-01-09T18:18:21.759Z,3.90
2019-01-09T18:20:50.797Z,3.80
2019-01-09T18:23:19.783Z,3.80
2019-01-09T18:25:48.787Z,3.90
2019-01-09T18:28:17.637Z,3.90
2019-01-09T18:31:31.465Z,3.80
2019-01-09T18:34:21.312Z,3.90
2019-01-09T18:37:19.437Z,3.90
2019-01-09T18:40:33.079Z,3.90
2019-01-09T18:43:29.158Z,3.80
2019-01-09T18:46:29.194Z,3.80
2019-01-09T18:49:25.935Z,3.70
2019-01-09T18:52:28.765Z,3.70
2019-01-09T18:54:57.644Z,3.70
2019-01-09T18:57:26.531Z,3.70
2019-01-09T18:59:55.505Z,3.70
2019-01-09T19:02:27.014Z,3.60
2019-01-09T19:04:56.226Z,3.70
2019-01-09T19:07:25.350Z,3.70
2019-01-09T19:09:57.160Z,3.70
2019-01-09T19:12:26.177Z,3.60
2019-01-09T19:14:55.173Z,3.70
2019-01-09T19:17:24.225Z,3.70
2019-01-09T19:19:53.269Z,3.70
2019-01-09T19:22:22.171Z,3.60
2019-01-09T19:24:51.320Z,3.60
2019-01-09T19:27:20.386Z,3.70
2019-01-09T19:29:49.528Z,3.70
2019-01-09T19:32:18.451Z,3.70
2019-01-09T19:34:47.969Z,3.70
2019-01-09T19:37:17.213Z,3.60
2019-01-09T19:39:48.286Z,3.60
2019-01-09T19:42:19.546Z,3.60
2019-01-09T19:44:49.143Z,3.60
2019-01-09T19:47:22.915Z,3.60
2019-01-09T19:49:51.906Z,3.60
2019-01-09T19:52:21.067Z,3.60
2019-01-09T19:54:50.094Z,3.60
2019-01-09T19:57:19.380Z,3.50
2019-01-09T19:59:51.319Z,3.50
2019-01-09T20:02:20.698Z,3.50
2019-01-09T20:04:50.665Z,3.50
2019-01-09T20:07:19.720Z,3.40
2019-01-09T20:09:49.206Z,3.50
2019-01-09T20:12:18.423Z,3.40
2019-01-09T20:14:48.041Z,3.40
2019-01-09T20:17:17.314Z,3.40
2019-01-09T20:19:49.848Z,3.40
2019-01-09T20:22:41.936Z,3.40
2019-01-09T20:25:12.349Z,3.30
2019-01-09T20:27:41.267Z,3.30
2019-01-09T20:30:20.062Z,3.30
2019-01-09T20:32:49.652Z,3.40
2019-01-09T20:35:18.951Z,3.40
2019-01-09T20:37:47.944Z,3.30
2019-01-09T20:40:18.785Z,3.30
2019-01-09T20:42:47.708Z,3.20
2019-01-09T20:45:18.553Z,3.20
2019-01-09T20:47:47.492Z,3.20
2019-01-09T20:50:19.347Z,3.20
2019-01-09T20:52:48.816Z,3.20
2019-01-09T20:55:17.783Z,3.10
2019-01-09T20:57:46.926Z,3.10
2019-01-09T21:00:27.687Z,3.00
2019-01-09T21:02:59.395Z,3.00
2019-01-09T21:05:31.588Z,3.10
2019-01-09T21:08:00.458Z,3.00
2019-01-09T21:10:29.648Z,3.00
2019-01-09T21:12:58.720Z,2.90
2019-01-09T21:15:28.045Z,2.90
2019-01-09T21:17:57.177Z,2.80
2019-01-09T21:20:26.259Z,2.80
2019-01-09T21:22:55.133Z,2.80
2019-01-09T21:25:24.040Z,2.80
2019-01-09T21:27:52.839Z,2.80
2019-01-09T21:30:22.842Z,2.80
2019-01-09T21:32:51.579Z,2.80
2019-01-09T21:35:20.385Z,2.80
2019-01-09T21:37:49.091Z,2.70
2019-01-09T21:40:20.179Z,2.70
2019-01-09T21:42:48.955Z,2.70
2019-01-09T21:45:17.679Z,2.60
2019-01-09T21:47:46.386Z,2.60
2019-01-09T21:50:15.726Z,2.60
2019-01-09T21:52:44.485Z,2.60
2019-01-09T21:55:14.304Z,2.50
2019-01-09T21:57:42.993Z,2.50
2019-01-09T22:00:14.839Z,2.50
2019-01-09T22:02:43.644Z,2.50
2019-01-09T22:05:12.354Z,2.50
2019-01-09T22:07:41.297Z,2.40
2019-01-09T22:10:18.524Z,2.40
2019-01-09T22:12:47.583Z,2.30
2019-01-09T22:15:16.771Z,2.30
2019-01-09T22:17:46.322Z,2.30
2019-01-09T22:20:15.107Z,2.30
2019-01-09T22:22:43.878Z,2.30
2019-01-09T22:25:12.618Z,2.30
2019-01-09T22:27:41.360Z,2.20
2019-01-09T22:30:13.394Z,2.20
2019-01-09T22:32:42.051Z,2.20
2019-01-09T22:35:10.830Z,2.20
2019-01-09T22:37:39.504Z,2.20
2019-01-09T22:40:09.645Z,2.10
2019-01-09T22:42:38.534Z,2.10
2019-01-09T22:45:08.620Z,2.10
2019-01-09T22:47:37.389Z,2.10
2019-01-09T22:50:07.465Z,2.00
2019-01-09T22:52:36.154Z,2.00
2019-01-09T22:55:04.935Z,2.00
2019-01-09T22:57:33.626Z,2.00
2019-01-09T23:00:02.411Z,2.00
2019-01-09T23:02:31.202Z,1.90
2019-01-09T23:05:00.049Z,1.90
2019-01-09T23:07:28.933Z,1.90
2019-01-09T23:09:57.709Z,1.80
2019-01-09T23:12:26.470Z,1.80
2019-01-09T23:14:55.177Z,1.90
2019-01-09T23:17:23.963Z,1.80
2019-01-09T23:19:52.648Z,1.80
2019-01-09T23:22:21.367Z,1.80
2019-01-09T23:24:50.202Z,1.70
2019-01-09T23:27:19.003Z,1.70
2019-01-09T23:29:47.965Z,1.70
2019-01-09T23:32:16.833Z,1.70
2019-01-09T23:34:45.549Z,1.70
2019-01-09T23:37:14.309Z,1.60
2019-01-09T23:39:43.067Z,1.60
2019-01-09T23:42:11.788Z,1.60
2019-01-09T23:44:40.482Z,1.60
2019-01-09T23:47:09.249Z,1.60
2019-01-09T23:49:37.997Z,1.60
2019-01-09T23:52:06.700Z,1.50
2019-01-09T23:54:35.468Z,1.50
2019-01-09T23:57:04.259Z,1.60
2019-01-09T23:59:33.131Z,1.50
